sensor_id;sensor_type;location;lat;lon;timestamp;P1;durP1;ratioP1;P2;durP2;ratioP2
60999;SDS011;46879;45.658;11.814;2023-04-01T00:02:35;5.85;;;3.38;;
60999;SDS011;46879;45.658;11.814;2023-04-01T00:07:36;4.15;;;3.10;;
60999;SDS011;46879;45.658;11.814;2023-04-01T00:12:38;4.20;;;3.35;;
60999;SDS011;46879;45.658;11.814;2023-04-01T00:17:39;3.95;;;3.30;;
60999;SDS011;46879;45.658;11.814;2023-04-01T00:22:40;4.85;;;3.22;;
60999;SDS011;46879;45.658;11.814;2023-04-01T00:27:41;12.00;;;3.30;;
60999;SDS011;46879;45.658;11.814;2023-04-01T00:32:42;3.92;;;2.72;;
60999;SDS011;46879;45.658;11.814;2023-04-01T00:37:43;5.88;;;3.35;;
60999;SDS011;46879;45.658;11.814;2023-04-01T00:42:44;5.10;;;3.08;;
60999;SDS011;46879;45.658;11.814;2023-04-01T00:47:45;6.97;;;3.35;;
60999;SDS011;46879;45.658;11.814;2023-04-01T00:52:45;5.22;;;3.42;;
60999;SDS011;46879;45.658;11.814;2023-04-01T00:57:46;4.85;;;3.20;;
60999;SDS011;46879;45.658;11.814;2023-04-01T01:02:50;3.55;;;3.08;;
60999;SDS011;46879;45.658;11.814;2023-04-01T01:07:59;5.47;;;3.38;;
60999;SDS011;46879;45.658;11.814;2023-04-01T01:13:17;4.32;;;3.20;;
60999;SDS011;46879;45.658;11.814;2023-04-01T01:24:06;5.85;;;3.42;;
60999;SDS011;46879;45.658;11.814;2023-04-01T01:39:39;5.10;;;3.13;;
60999;SDS011;46879;45.658;11.814;2023-04-01T01:44:43;3.72;;;3.35;;
60999;SDS011;46879;45.658;11.814;2023-04-01T01:49:46;4.13;;;3.15;;
60999;SDS011;46879;45.658;11.814;2023-04-01T01:54:51;3.40;;;3.10;;
60999;SDS011;46879;45.658;11.814;2023-04-01T01:59:55;4.25;;;3.00;;
60999;SDS011;46879;45.658;11.814;2023-04-01T02:05:00;4.22;;;3.10;;
60999;SDS011;46879;45.658;11.814;2023-04-01T02:10:05;3.28;;;2.97;;
60999;SDS011;46879;45.658;11.814;2023-04-01T02:15:08;5.82;;;3.38;;
60999;SDS011;46879;45.658;11.814;2023-04-01T02:20:13;4.25;;;3.15;;
60999;SDS011;46879;45.658;11.814;2023-04-01T02:25:25;4.40;;;3.38;;
60999;SDS011;46879;45.658;11.814;2023-04-01T02:30:29;3.55;;;3.17;;
60999;SDS011;46879;45.658;11.814;2023-04-01T02:35:35;5.53;;;3.30;;
60999;SDS011;46879;45.658;11.814;2023-04-01T02:40:41;4.45;;;3.20;;
60999;SDS011;46879;45.658;11.814;2023-04-01T02:45:48;4.10;;;3.42;;
60999;SDS011;46879;45.658;11.814;2023-04-01T02:50:48;3.97;;;3.30;;
60999;SDS011;46879;45.658;11.814;2023-04-01T02:55:49;5.90;;;3.30;;
60999;SDS011;46879;45.658;11.814;2023-04-01T03:00:51;3.42;;;3.10;;
60999;SDS011;46879;45.658;11.814;2023-04-01T03:05:52;3.60;;;3.10;;
60999;SDS011;46879;45.658;11.814;2023-04-01T03:10:55;5.28;;;3.20;;
60999;SDS011;46879;45.658;11.814;2023-04-01T03:15:55;6.15;;;2.97;;
60999;SDS011;46879;45.658;11.814;2023-04-01T03:20:56;3.55;;;2.92;;
60999;SDS011;46879;45.658;11.814;2023-04-01T03:25:57;3.28;;;2.97;;
60999;SDS011;46879;45.658;11.814;2023-04-01T03:30:57;3.60;;;2.95;;
60999;SDS011;46879;45.658;11.814;2023-04-01T03:35:58;3.58;;;2.85;;
60999;SDS011;46879;45.658;11.814;2023-04-01T03:40:58;3.70;;;2.83;;
60999;SDS011;46879;45.658;11.814;2023-04-01T03:45:59;4.13;;;3.10;;
60999;SDS011;46879;45.658;11.814;2023-04-01T03:51:00;5.63;;;2.80;;
60999;SDS011;46879;45.658;11.814;2023-04-01T03:56:04;3.33;;;2.83;;
60999;SDS011;46879;45.658;11.814;2023-04-01T04:01:13;3.53;;;2.78;;
60999;SDS011;46879;45.658;11.814;2023-04-01T04:06:21;3.30;;;3.00;;
60999;SDS011;46879;45.658;11.814;2023-04-01T04:11:23;3.15;;;2.65;;
60999;SDS011;46879;45.658;11.814;2023-04-01T04:16:24;3.40;;;3.10;;
60999;SDS011;46879;45.658;11.814;2023-04-01T04:21:24;3.65;;;3.08;;
60999;SDS011;46879;45.658;11.814;2023-04-01T04:26:25;3.55;;;2.85;;
60999;SDS011;46879;45.658;11.814;2023-04-01T04:31:27;3.08;;;2.63;;
60999;SDS011;46879;45.658;11.814;2023-04-01T04:36:28;5.25;;;2.70;;
60999;SDS011;46879;45.658;11.814;2023-04-01T04:41:28;3.50;;;3.00;;
60999;SDS011;46879;45.658;11.814;2023-04-01T04:46:29;4.47;;;2.78;;
60999;SDS011;46879;45.658;11.814;2023-04-01T04:51:30;3.65;;;2.72;;
60999;SDS011;46879;45.658;11.814;2023-04-01T04:56:33;2.60;;;2.40;;
60999;SDS011;46879;45.658;11.814;2023-04-01T05:01:35;4.22;;;2.72;;
60999;SDS011;46879;45.658;11.814;2023-04-01T05:06:36;3.55;;;2.85;;
60999;SDS011;46879;45.658;11.814;2023-04-01T05:11:36;3.08;;;2.78;;
60999;SDS011;46879;45.658;11.814;2023-04-01T05:16:37;3.53;;;2.95;;
60999;SDS011;46879;45.658;11.814;2023-04-01T05:21:38;2.53;;;2.33;;
60999;SDS011;46879;45.658;11.814;2023-04-01T05:26:38;3.47;;;2.70;;
60999;SDS011;46879;45.658;11.814;2023-04-01T05:31:39;2.80;;;2.45;;
60999;SDS011;46879;45.658;11.814;2023-04-01T05:36:39;2.72;;;2.28;;
60999;SDS011;46879;45.658;11.814;2023-04-01T05:41:41;3.05;;;2.75;;
60999;SDS011;46879;45.658;11.814;2023-04-01T05:46:42;11.68;;;2.83;;
60999;SDS011;46879;45.658;11.814;2023-04-01T05:51:42;2.42;;;2.22;;
60999;SDS011;46879;45.658;11.814;2023-04-01T05:56:44;2.88;;;2.50;;
60999;SDS011;46879;45.658;11.814;2023-04-01T06:01:45;2.80;;;2.60;;
60999;SDS011;46879;45.658;11.814;2023-04-01T06:06:45;2.70;;;2.50;;
60999;SDS011;46879;45.658;11.814;2023-04-01T06:11:51;3.60;;;2.80;;
60999;SDS011;46879;45.658;11.814;2023-04-01T06:22:45;3.53;;;2.33;;
60999;SDS011;46879;45.658;11.814;2023-04-01T06:28:08;3.05;;;2.40;;
60999;SDS011;46879;45.658;11.814;2023-04-01T06:39:33;3.10;;;2.55;;
60999;SDS011;46879;45.658;11.814;2023-04-01T07:01:32;5.22;;;2.58;;
60999;SDS011;46879;45.658;11.814;2023-04-01T07:06:44;7.65;;;2.67;;
60999;SDS011;46879;45.658;11.814;2023-04-01T07:12:04;2.67;;;2.42;;
60999;SDS011;46879;45.658;11.814;2023-04-01T07:17:16;3.42;;;2.53;;
60999;SDS011;46879;45.658;11.814;2023-04-01T07:22:27;7.97;;;3.40;;
60999;SDS011;46879;45.658;11.814;2023-04-01T07:27:44;18.20;;;3.70;;
60999;SDS011;46879;45.658;11.814;2023-04-01T07:44:27;19.42;;;12.23;;
60999;SDS011;46879;45.658;11.814;2023-04-01T07:50:01;21.38;;;11.98;;
60999;SDS011;46879;45.658;11.814;2023-04-01T07:55:30;31.75;;;11.73;;
60999;SDS011;46879;45.658;11.814;2023-04-01T08:22:27;19.02;;;8.82;;
60999;SDS011;46879;45.658;11.814;2023-04-01T08:27:37;13.20;;;7.80;;
60999;SDS011;46879;45.658;11.814;2023-04-01T08:32:48;16.13;;;8.55;;
60999;SDS011;46879;45.658;11.814;2023-04-01T08:37:57;16.02;;;7.65;;
60999;SDS011;46879;45.658;11.814;2023-04-01T08:48:48;13.85;;;8.18;;
60999;SDS011;46879;45.658;11.814;2023-04-01T08:59:35;16.40;;;8.00;;
60999;SDS011;46879;45.658;11.814;2023-04-01T09:22:09;11.32;;;6.40;;
60999;SDS011;46879;45.658;11.814;2023-04-01T09:27:41;12.60;;;6.13;;
60999;SDS011;46879;45.658;11.814;2023-04-01T09:39:23;13.52;;;5.88;;
60999;SDS011;46879;45.658;11.814;2023-04-01T10:12:31;10.18;;;4.57;;
60999;SDS011;46879;45.658;11.814;2023-04-01T10:50:53;8.75;;;4.38;;
60999;SDS011;46879;45.658;11.814;2023-04-01T10:56:39;11.85;;;4.53;;
60999;SDS011;46879;45.658;11.814;2023-04-01T11:35:38;7.88;;;4.22;;
60999;SDS011;46879;45.658;11.814;2023-04-01T11:40:51;6.15;;;3.65;;
60999;SDS011;46879;45.658;11.814;2023-04-01T12:14:09;9.60;;;4.00;;
60999;SDS011;46879;45.658;11.814;2023-04-01T12:19:35;16.33;;;4.20;;
60999;SDS011;46879;45.658;11.814;2023-04-01T12:30:26;13.07;;;3.60;;
60999;SDS011;46879;45.658;11.814;2023-04-01T13:14:27;16.33;;;4.10;;
60999;SDS011;46879;45.658;11.814;2023-04-01T13:19:38;36.53;;;4.43;;
60999;SDS011;46879;45.658;11.814;2023-04-01T13:31:04;19.77;;;3.88;;
60999;SDS011;46879;45.658;11.814;2023-04-01T13:42:00;14.23;;;4.10;;
60999;SDS011;46879;45.658;11.814;2023-04-01T14:15:09;5.18;;;3.30;;
60999;SDS011;46879;45.658;11.814;2023-04-01T14:43:19;4.10;;;3.30;;
60999;SDS011;46879;45.658;11.814;2023-04-01T14:48:48;5.95;;;3.15;;
60999;SDS011;46879;45.658;11.814;2023-04-01T15:09:30;6.00;;;3.38;;
60999;SDS011;46879;45.658;11.814;2023-04-01T15:14:49;5.57;;;3.00;;
60999;SDS011;46879;45.658;11.814;2023-04-01T15:47:35;3.42;;;2.88;;
60999;SDS011;46879;45.658;11.814;2023-04-01T15:52:49;2.80;;;2.58;;
60999;SDS011;46879;45.658;11.814;2023-04-01T16:47:11;4.32;;;2.72;;
60999;SDS011;46879;45.658;11.814;2023-04-01T16:52:15;3.85;;;3.13;;
60999;SDS011;46879;45.658;11.814;2023-04-01T17:13:46;4.95;;;2.90;;
60999;SDS011;46879;45.658;11.814;2023-04-01T17:46:56;3.78;;;2.88;;
60999;SDS011;46879;45.658;11.814;2023-04-01T17:52:33;3.92;;;3.00;;
60999;SDS011;46879;45.658;11.814;2023-04-01T17:58:07;7.75;;;3.22;;
60999;SDS011;46879;45.658;11.814;2023-04-01T18:14:43;15.00;;;3.60;;
60999;SDS011;46879;45.658;11.814;2023-04-01T18:25:46;10.63;;;4.68;;
60999;SDS011;46879;45.658;11.814;2023-04-01T18:31:04;16.30;;;4.50;;
60999;SDS011;46879;45.658;11.814;2023-04-01T18:36:33;8.85;;;3.70;;
60999;SDS011;46879;45.658;11.814;2023-04-01T18:41:53;11.15;;;4.10;;
60999;SDS011;46879;45.658;11.814;2023-04-01T18:53:15;16.52;;;5.72;;
60999;SDS011;46879;45.658;11.814;2023-04-01T18:58:23;19.25;;;5.18;;
60999;SDS011;46879;45.658;11.814;2023-04-01T19:04:03;25.00;;;4.95;;
60999;SDS011;46879;45.658;11.814;2023-04-01T19:20:03;13.55;;;4.53;;
60999;SDS011;46879;45.658;11.814;2023-04-01T19:36:15;12.88;;;5.10;;
60999;SDS011;46879;45.658;11.814;2023-04-01T19:41:41;11.98;;;4.30;;
60999;SDS011;46879;45.658;11.814;2023-04-01T19:46:58;12.70;;;4.30;;
60999;SDS011;46879;45.658;11.814;2023-04-01T19:52:26;11.23;;;4.38;;
60999;SDS011;46879;45.658;11.814;2023-04-01T19:57:38;10.38;;;4.03;;
60999;SDS011;46879;45.658;11.814;2023-04-01T20:02:54;9.85;;;4.50;;
60999;SDS011;46879;45.658;11.814;2023-04-01T20:14:13;8.60;;;4.20;;
60999;SDS011;46879;45.658;11.814;2023-04-01T20:25:27;10.00;;;4.72;;
60999;SDS011;46879;45.658;11.814;2023-04-01T20:36:12;9.35;;;4.38;;
60999;SDS011;46879;45.658;11.814;2023-04-01T20:41:26;7.63;;;3.63;;
60999;SDS011;46879;45.658;11.814;2023-04-01T20:46:30;7.07;;;4.10;;
60999;SDS011;46879;45.658;11.814;2023-04-01T21:18:29;7.63;;;4.70;;
60999;SDS011;46879;45.658;11.814;2023-04-01T22:19:37;8.02;;;3.72;;
60999;SDS011;46879;45.658;11.814;2023-04-01T22:25:14;11.32;;;4.07;;
60999;SDS011;46879;45.658;11.814;2023-04-01T22:30:23;10.68;;;4.07;;
60999;SDS011;46879;45.658;11.814;2023-04-01T22:41:01;7.10;;;3.83;;
60999;SDS011;46879;45.658;11.814;2023-04-01T22:52:29;10.75;;;4.18;;
60999;SDS011;46879;45.658;11.814;2023-04-01T22:57:40;12.85;;;4.28;;
60999;SDS011;46879;45.658;11.814;2023-04-01T23:03:01;6.80;;;3.88;;
60999;SDS011;46879;45.658;11.814;2023-04-01T23:19:24;11.55;;;4.75;;
60999;SDS011;46879;45.658;11.814;2023-04-01T23:24:45;9.57;;;4.10;;
60999;SDS011;46879;45.658;11.814;2023-04-01T23:30:51;8.95;;;3.72;;
60999;SDS011;46879;45.658;11.814;2023-04-01T23:40:54;10.10;;;4.05;;
60999;SDS011;46879;45.658;11.814;2023-04-01T23:45:56;7.75;;;3.60;;
60999;SDS011;46879;45.658;11.814;2023-04-01T23:51:00;11.00;;;4.18;;
60999;SDS011;46879;45.658;11.814;2023-04-01T23:56:02;8.18;;;3.60;;
